Архив погоды в Карабулаке

Метеограмма Карабулак
Понедельник, 24 Сентября
Время местн. Темп Ветер Видим Явления Облачность нижн/средн/верх Атм. давл. Влжн Точка росы ВНГО R Сост. почвы Tg s
Напр Скр Прв ур.ст ур.м изм
06:00 +10.4° Ю,Ю-В 2 - 10 км слабый непрерывный дождь облачно 730 757 -0.5 84% +7.9° 600 м - Влажная (без луж) - -
03:00 +12.4° Ю,Ю-В 2 - 10 км - ясно 731 757 -1.1 58% +4.5° более 2.5 км - - - -
00:00 +12.1° Ю-В 2 - 10 км - облачно с прояснениями 732 758 -1.3 63% +5.3° более 2.5 км - - - -
Воскресенье, 23 Сентября
Время местн. Темп Ветер Видим Явления Облачность нижн/средн/верх Атм. давл. Влжн Точка росы ВНГО R Сост. почвы Tg s
Напр Скр Прв ур.ст ур.м изм
21:00 +14.4° Ю 3 - 10 км - незначительная облачность 733 759 -1.1 69% +8.8° более 2.5 км - - - -
18:00 +18.2° Ю 2 - 20 км - облачно с прояснениями 734 760 -1.5 60% +10.3° более 2.5 км - - - -
15:00 +21.3° Ю 6 12 20 км - переменная облачность 736 762 -1.4 48% +9.8° 1 км - - - -
12:00 +21.1° Ю 5 - 20 км - переменная облачность 737 763 -1 58% +12.4° 1 км - - - -
09:00 +16.7° Ю,Ю-В 3 - 20 км - переменная облачность 738 764 -0.5 74% +12° более 2.5 км - - - -
06:00 +12.8° Ю,Ю-В 2 - 20 км - переменная облачность 739 765 -0.5 85% +10.4° более 2.5 км - Сухая (без трещин) - -
03:00 +15.1° Ю,Ю-З 2 - 10 км - ясно 739 766 -0.4 73% +10.4° более 2.5 км - - - -
00:00 +15.3° Ю 2 - 10 км - переменная облачность 739 766 -0.4 75% +10.8° более 2.5 км - - - -
Суббота, 22 Сентября
Время местн. Темп Ветер Видим Явления Облачность нижн/средн/верх Атм. давл. Влжн Точка росы ВНГО R Сост. почвы Tg s
Напр Скр Прв ур.ст ур.м изм
21:00 +17.4° Ю-З 2 - 10 км - ясно 740 766 +0.1 66% +11° более 2.5 км - - - -
18:00 +19.5° Ю,Ю-З 2 - 20 км - незначительная облачность 740 766 -0.5 60% +11.6° более 2.5 км - - - -
15:00 +23.6° штиль 0 - 20 км - облачно с прояснениями 740 766 -0.8 45% +11.1° 1.5 км - - - -
12:00 +22.8° штиль 0 - 20 км - переменная облачность 741 767 -0.3 47% +10.8° 1 км - - - -
06:00 +12.8° З,С-З 2 - 20 км - преимущественно облачно 741 768 +0.4 89% +11° - - Влажная (без луж) - -
03:00 +12.4° С-З 2 - 10 км - облачно с прояснениями 740 767 +0.5 84% +9.8° - - - - -
00:00 +12.1° З,С-З 3 - 10 км - ясно 740 767 +0.6 85% +9.6° более 2.5 км - - - -
Пятница, 21 Сентября
Время местн. Темп Ветер Видим Явления Облачность нижн/средн/верх Атм. давл. Влжн Точка росы ВНГО R Сост. почвы Tg s
Напр Скр Прв ур.ст ур.м изм
21:00 +13.2° З,С-З 2 - 10 км - ясно 739 766 +0.7 84% +10.5° более 2.5 км - - - -
18:00 +16.7° С 2 - 20 км - переменная облачность 739 765 +0.8 74% +12° 1.5 км - - - -
15:00 +19.5° С,С-З 5 - 20 км - преимущественно облачно 738 764 +0.5 61% +11.9° 1 км - - - -
12:00 +17° С,С-З 6 - 20 км - преимущественно облачно 737 764 +0.9 76% +12.8° 1 км - - - -
09:00 +13.9° С 7 - 20 км - облачно 737 763 +1.4 89% +12.2° 1 км - - - -
06:00 +11.3° С,С-З 5 - 20 км - переменная облачность 735 762 +1.4 92% +10.1° - - Влажная (без луж) - -
03:00 +12.9° С,С-З 5 - 10 км - переменная облачность 734 760 +0.9 91% +11.4° - - - - -
00:00 +13.7° С-З 4 - 10 км - облачно с прояснениями 733 759 -0.3 87% +11.6° - - - - -